»·PEaware :: N196BM KVNY-KSNA

N196BM :: KVNY-KSNA

FLIGHT INFORMATION

Flight Status: Arrived
Operator: Privately registered:
United States
More flights under this callsign
Pilot: Hans K. (17756)
Aircraft: CESSNA 337 TURBO SKYMASTER
(C337)
More flights by this aircraft type
Origin: KVNY Van Nuys
United States
Destination: KSNA John Wayne-Orange Co
United States
More flights between these airports :: More routes between these airports
Route:
File this flight plan on PilotEdge
Remarks: CAT 10
Altitude:
(Current/Filed)
5,500ft
Speed:
(Current/Filed)
140kts
Departed: 11-Feb-19 11:34 AM
Arrived: 11-Feb-19 11:59 AM
Distance/Time
Traveled:
44nm/0:25
Distance/Time
To Go:
Arrived

Flight Plot

Page will automatically refresh every two minutes.


Map Options




Map Legend


Flown Route
Filed Route
Departure Airport
Arrival Airport
Navaid (VOR, NDB)
Fix

Horizontal Profiles

Position Reports

Time Latitude Longitude Heading Altitude Ground
Speed
11-Feb-19 11:09 34.205966 -118.491520 270 805ft 0kts
11-Feb-19 11:10 34.205966 -118.491524 270 805ft 0kts
11-Feb-19 11:11 34.205966 -118.491528 270 805ft 0kts
11-Feb-19 11:12 34.205966 -118.491532 270 805ft 0kts
11-Feb-19 11:13 34.205966 -118.491535 270 805ft 0kts
11-Feb-19 11:13 34.205966 -118.491539 270 805ft 0kts
11-Feb-19 11:15 34.205966 -118.491543 270 805ft 0kts
11-Feb-19 11:16 34.205966 -118.491547 270 805ft 0kts
11-Feb-19 11:16 34.205966 -118.491550 270 805ft 0kts
11-Feb-19 11:17 34.205966 -118.491554 270 805ft 0kts
11-Feb-19 11:18 34.205966 -118.491557 270 805ft 0kts
11-Feb-19 11:20 34.205966 -118.491562 270 805ft 0kts
11-Feb-19 11:20 34.205966 -118.491565 270 805ft 0kts
11-Feb-19 11:21 34.205966 -118.491566 270 805ft 0kts
11-Feb-19 11:22 34.205966 -118.491569 270 805ft 0kts
11-Feb-19 11:23 34.205966 -118.491573 270 805ft 0kts
11-Feb-19 11:24 34.205966 -118.491577 270 805ft 0kts
11-Feb-19 11:25 34.205966 -118.491581 270 805ft 0kts
11-Feb-19 11:26 34.205966 -118.491585 270 805ft 0kts
11-Feb-19 11:27 34.206006 -118.491644 354 805ft 3kts
11-Feb-19 11:28 34.209118 -118.491555 355 805ft 20kts
11-Feb-19 11:29 34.215274 -118.492178 352 805ft 21kts
11-Feb-19 11:30 34.218753 -118.492106 86 805ft 0kts
11-Feb-19 11:31 34.218753 -118.492103 86 805ft 0kts
11-Feb-19 11:32 34.218785 -118.491568 87 805ft 11kts
11-Feb-19 11:33 34.200413 -118.489680 174 1445ft 88kts
11-Feb-19 11:34 34.175103 -118.491557 191 2911ft 91kts
11-Feb-19 11:35 34.151472 -118.505705 207 4615ft 99kts
11-Feb-19 11:36 34.121271 -118.523958 180 5542ft 159kts
11-Feb-19 11:37 34.077233 -118.502573 155 5492ft 168kts
11-Feb-19 11:38 34.034219 -118.478630 152 5469ft 171kts
11-Feb-19 11:39 33.991601 -118.454052 162 5471ft 171kts
11-Feb-19 11:40 33.946362 -118.439264 155 5531ft 169kts
11-Feb-19 11:41 33.906928 -118.408653 128 5536ft 169kts
11-Feb-19 11:42 33.875065 -118.366578 133 5461ft 175kts
11-Feb-19 11:43 33.839484 -118.328025 141 5544ft 169kts
11-Feb-19 11:44 33.802497 -118.291452 138 5503ft 170kts
11-Feb-19 11:45 33.766411 -118.254000 129 5497ft 166kts
11-Feb-19 11:46 33.743287 -118.206192 115 4654ft 172kts
11-Feb-19 11:47 33.721629 -118.154834 117 2870ft 171kts
11-Feb-19 11:48 33.700514 -118.106726 118 1701ft 152kts
11-Feb-19 11:49 33.681776 -118.064182 119 1990ft 145kts
11-Feb-19 11:50 33.661551 -118.020517 118 2013ft 146kts
11-Feb-19 11:51 33.647773 -117.977002 93 1643ft 136kts
11-Feb-19 11:52 33.657520 -117.936137 73 1236ft 114kts
11-Feb-19 11:53 33.666108 -117.901499 74 1118ft 106kts
11-Feb-19 11:54 33.689916 -117.885435 23 1111ft 114kts
11-Feb-19 11:55 33.714924 -117.867358 76 999ft 90kts
11-Feb-19 11:56 33.701173 -117.852624 209 517ft 82kts
11-Feb-19 11:57 33.682141 -117.864745 206 84ft 67kts
11-Feb-19 11:58 33.678016 -117.868328 297 59ft 0kts
11-Feb-19 11:59 33.675277 -117.870638 207 59ft 18kts
11-Feb-19 12:00 33.674739 -117.871668 215 59ft 0kts
11-Feb-19 12:01 33.674739 -117.871668 215 59ft 0kts

Navigation Log

Ident Type
Flight plan parsing failed, navigation log unavailable